Time;durP1;ratioP1;P1;durP2;ratioP2;P2;SDS_P1;SDS_P2;PMS_P1;PMS_P2;Temp;Humidity;BMP_temperature;BMP_pressure;BME280_temperature;BME280_humidity;BME280_pressure;Samples;Min_cycle;Max_cycle;Signal;HPM_P1;HPM_P2
2021/04/22 00:01:56;;;;;;;28.23;6.38;;;;;;;5.89;58.38;101109.56;5033601;28;20032;-78
2021/04/22 00:04:22;;;;;;;22.92;5.30;;;;;;;5.91;58.85;101121.88;5014856;28;20044;-78
2021/04/22 00:06:51;;;;;;;27.33;5.55;;;;;;;5.95;58.59;101135.91;5036333;28;20056;-79
2021/04/22 00:09:17;;;;;;;27.35;5.15;;;;;;;5.83;58.89;101110.81;5035227;28;20033;-79
2021/04/22 00:11:43;;;;;;;32.28;8.27;;;;;;;5.85;58.99;101134.75;5036932;28;20029;-79
2021/04/22 00:14:08;;;;;;;35.92;7.95;;;;;;;5.81;59.20;101117.19;5039121;28;20033;-79
2021/04/22 00:16:34;;;;;;;34.85;5.07;;;;;;;5.81;58.30;101133.22;5035754;28;20065;-79
2021/04/22 00:19:00;;;;;;;28.45;5.85;;;;;;;5.79;58.77;101130.66;5033898;28;20032;-79
2021/04/22 00:21:25;;;;;;;32.92;5.50;;;;;;;5.84;58.79;101128.53;5034458;28;20029;-79
2021/04/22 00:23:51;;;;;;;30.52;5.35;;;;;;;5.87;57.93;101131.00;5032726;28;20029;-78
2021/04/22 00:26:16;;;;;;;26.63;5.45;;;;;;;5.85;57.93;101127.59;5014786;28;20025;-79
2021/04/22 00:28:41;;;;;;;33.95;5.57;;;;;;;5.79;58.60;101127.13;5036345;28;20025;-79
2021/04/22 00:31:07;;;;;;;29.52;7.10;;;;;;;5.80;58.27;101135.03;5035197;28;20106;-79
2021/04/22 00:33:32;;;;;;;32.58;5.25;;;;;;;5.75;58.96;101127.31;5034464;28;20037;-78
2021/04/22 00:35:57;;;;;;;26.77;5.40;;;;;;;5.85;57.87;101124.94;5035986;28;20116;-79
2021/04/22 00:38:23;;;;;;;29.95;5.05;;;;;;;5.80;58.40;101119.00;5036397;28;20038;-79
2021/04/22 00:40:49;;;;;;;24.42;5.20;;;;;;;5.78;58.17;101126.25;5037269;28;20032;-79
2021/04/22 00:43:17;;;;;;;23.23;5.57;;;;;;;5.75;57.99;101126.44;5036356;28;20034;-78
2021/04/22 00:45:45;;;;;;;26.08;5.30;;;;;;;5.66;58.14;101122.56;5034453;28;20034;-78
2021/04/22 00:48:12;;;;;;;25.20;4.68;;;;;;;5.49;58.93;101136.91;5017300;28;20033;-83
2021/04/22 00:50:40;;;;;;;36.97;6.75;;;;;;;5.44;59.29;101138.13;5017773;28;20481;-83
2021/04/22 00:53:07;;;;;;;25.80;5.38;;;;;;;5.37;60.02;101129.66;5018456;28;20041;-84
2021/04/22 00:55:34;;;;;;;33.20;5.93;;;;;;;5.24;59.60;101134.03;5017012;28;20511;-84
2021/04/22 00:58:00;;;;;;;31.77;5.40;;;;;;;5.20;60.53;101141.31;5033513;28;20022;-83
2021/04/22 01:00:35;;;;;;;25.75;4.97;;;;;;;5.15;60.46;101129.25;5013822;28;20567;-83
2021/04/22 01:03:01;;;;;;;32.35;4.82;;;;;;;5.03;61.51;101131.69;5036796;28;20061;-83
2021/04/22 01:05:33;;;;;;;27.23;4.90;;;;;;;4.88;62.10;101140.56;5036310;28;20048;-82
2021/04/22 01:07:59;;;;;;;26.52;4.93;;;;;;;4.82;62.16;101149.78;5016215;28;20040;-82
2021/04/22 01:10:25;;;;;;;21.45;5.07;;;;;;;4.84;63.34;101147.91;5033938;28;20452;-83
2021/04/22 01:12:50;;;;;;;28.67;6.60;;;;;;;4.81;62.88;101152.53;5016528;28;20044;-83
2021/04/22 01:15:19;;;;;;;36.15;6.30;;;;;;;4.93;63.24;101138.50;5036873;28;20045;-81
2021/04/22 01:17:45;;;;;;;32.67;4.47;;;;;;;4.92;63.25;101149.25;5037644;28;20032;-81
2021/04/22 01:20:13;;;;;;;22.42;4.22;;;;;;;5.03;63.46;101145.00;5032935;28;20420;-81
2021/04/22 01:22:39;;;;;;;32.42;7.03;;;;;;;5.07;63.99;101162.53;5034205;28;20026;-81
2021/04/22 01:25:07;;;;;;;33.00;5.18;;;;;;;5.11;63.67;101159.69;5034273;28;20033;-80
2021/04/22 01:27:33;;;;;;;35.60;5.53;;;;;;;5.01;64.38;101159.38;5017715;28;20066;-81
2021/04/22 01:29:58;;;;;;;25.67;4.25;;;;;;;4.79;65.57;101157.09;5045889;28;20032;-80
2021/04/22 01:32:23;;;;;;;23.75;4.57;;;;;;;4.78;66.04;101166.91;5042078;28;20099;-79
2021/04/22 01:34:49;;;;;;;26.52;4.70;;;;;;;4.63;66.59;101157.13;5040531;28;20089;-80
2021/04/22 01:37:14;;;;;;;33.35;6.53;;;;;;;4.54;67.28;101158.50;5040663;28;20065;-80
2021/04/22 01:39:40;;;;;;;34.85;5.28;;;;;;;4.46;67.88;101163.38;5037944;28;20389;-80
2021/04/22 01:42:06;;;;;;;29.73;5.47;;;;;;;4.46;67.88;101157.22;5019226;28;20067;-80
2021/04/22 01:44:31;;;;;;;36.17;7.25;;;;;;;4.40;68.82;101161.06;5018239;28;20037;-80
2021/04/22 01:46:56;;;;;;;31.10;6.05;;;;;;;4.41;68.79;101160.16;5036468;28;20032;-80
2021/04/22 01:49:22;;;;;;;33.03;6.82;;;;;;;4.39;68.77;101162.03;5017560;28;20160;-80
2021/04/22 01:51:47;;;;;;;39.55;5.72;;;;;;;4.33;69.20;101168.53;5020288;28;20657;-82
2021/04/22 01:54:12;;;;;;;34.22;6.43;;;;;;;4.27;70.19;101166.22;5045316;28;20041;-81
2021/04/22 01:56:37;;;;;;;34.20;7.35;;;;;;;4.27;69.79;101166.22;5040631;28;20425;-81
2021/04/22 01:59:03;;;;;;;31.17;6.72;;;;;;;4.25;70.04;101167.25;5021293;28;20079;-81
2021/04/22 02:01:28;;;;;;;35.13;6.43;;;;;;;4.27;69.95;101173.34;5037368;28;20124;-80
2021/04/22 02:03:54;;;;;;;28.35;7.32;;;;;;;4.28;70.75;101173.25;5037901;28;20365;-81
2021/04/22 02:06:19;;;;;;;38.78;7.65;;;;;;;4.32;70.21;101168.66;5018056;28;20465;-80
2021/04/22 02:08:44;;;;;;;38.72;6.68;;;;;;;4.33;70.46;101162.38;5017354;28;20196;-80
2021/04/22 02:11:10;;;;;;;29.40;5.88;;;;;;;4.38;70.59;101168.31;5035948;28;20036;-80
2021/04/22 02:13:35;;;;;;;40.13;6.10;;;;;;;4.48;69.96;101176.63;5017692;28;20040;-80
2021/04/22 02:16:01;;;;;;;39.85;6.07;;;;;;;4.54;69.59;101170.97;5016257;28;20128;-80
2021/04/22 02:18:27;;;;;;;43.00;6.72;;;;;;;4.51;69.85;101165.81;5021176;28;20073;-81
2021/04/22 02:20:52;;;;;;;33.92;7.97;;;;;;;4.50;70.18;101169.41;5022780;28;20060;-81
2021/04/22 02:23:20;;;;;;;35.42;6.60;;;;;;;4.54;69.60;101161.16;5038295;28;20554;-80
2021/04/22 02:25:47;;;;;;;38.08;7.63;;;;;;;4.50;69.47;101167.63;5037894;28;20029;-80
2021/04/22 02:28:12;;;;;;;30.88;6.03;;;;;;;4.54;69.68;101166.50;5038665;28;20026;-81
2021/04/22 02:30:41;;;;;;;32.47;6.13;;;;;;;4.52;70.20;101155.06;5037361;28;20504;-80
2021/04/22 02:33:09;;;;;;;31.63;6.28;;;;;;;4.55;70.13;101180.66;5036954;28;20048;-81
2021/04/22 02:35:37;;;;;;;44.50;7.60;;;;;;;4.50;69.36;101162.28;5017500;28;20033;-81
2021/04/22 02:38:05;;;;;;;35.00;6.57;;;;;;;4.40;70.63;101158.41;5018082;28;20120;-80
2021/04/22 02:40:32;;;;;;;32.33;5.88;;;;;;;4.42;70.23;101161.84;5037350;28;20030;-81
2021/04/22 02:42:59;;;;;;;39.58;7.30;;;;;;;4.41;70.67;101165.47;5027210;28;20036;-81
2021/04/22 02:45:28;;;;;;;34.28;6.00;;;;;;;4.43;70.62;101165.38;5043432;28;20045;-81
2021/04/22 02:47:53;;;;;;;38.85;6.43;;;;;;;4.36;70.74;101167.53;5039540;28;20029;-79
2021/04/22 02:50:24;;;;;;;31.33;6.05;;;;;;;4.37;71.26;101175.41;5038133;28;20021;-79
2021/04/22 02:52:49;;;;;;;34.38;6.50;;;;;;;4.31;71.33;101165.09;5019574;28;20029;-79
2021/04/22 02:55:15;;;;;;;39.08;7.30;;;;;;;4.30;71.52;101168.72;5035708;28;20034;-79
2021/04/22 02:57:40;;;;;;;34.85;6.38;;;;;;;4.23;71.57;101172.66;5019313;28;20033;-78
2021/04/22 03:00:08;;;;;;;45.08;7.72;;;;;;;4.23;72.13;101171.81;5036262;28;20102;-78
2021/04/22 03:02:34;;;;;;;36.00;6.93;;;;;;;4.21;72.01;101168.38;5041118;28;20079;-78
2021/04/22 03:04:59;;;;;;;40.50;8.25;;;;;;;4.28;71.23;101175.06;5037509;28;20034;-79
2021/04/22 03:07:25;;;;;;;41.90;6.30;;;;;;;4.28;71.51;101172.41;5045039;28;20055;-79
2021/04/22 03:09:50;;;;;;;27.45;6.03;;;;;;;4.25;71.98;101176.09;5042500;28;20059;-78
2021/04/22 03:12:16;;;;;;;39.17;6.13;;;;;;;4.21;72.41;101185.19;5036331;28;20039;-78
2021/04/22 03:14:41;;;;;;;39.63;6.75;;;;;;;4.34;71.06;101185.38;5039093;28;20056;-78
2021/04/22 03:17:07;;;;;;;36.97;6.63;;;;;;;4.35;71.20;101184.44;5017669;28;20555;-78
2021/04/22 03:19:32;;;;;;;33.25;6.32;;;;;;;4.30;71.34;101183.84;5018074;28;20041;-78
2021/04/22 03:21:58;;;;;;;34.35;5.93;;;;;;;4.28;71.23;101186.56;5036732;28;20042;-79
2021/04/22 03:24:23;;;;;;;32.92;7.65;;;;;;;4.29;71.48;101195.44;5038138;28;20056;-79
2021/04/22 03:26:48;;;;;;;37.17;6.32;;;;;;;4.22;71.94;101181.56;5039272;28;20037;-79
2021/04/22 03:29:14;;;;;;;54.90;9.57;;;;;;;4.18;71.34;101193.34;5038677;28;20040;-79
2021/04/22 03:31:39;;;;;;;36.70;7.30;;;;;;;4.17;71.58;101199.63;5042106;28;20467;-80
2021/04/22 03:34:04;;;;;;;33.35;7.28;;;;;;;4.15;72.24;101186.38;5037157;28;20061;-79
2021/04/22 03:36:30;;;;;;;50.67;9.18;;;;;;;4.15;72.21;101202.34;5037389;28;20030;-79
2021/04/22 03:38:55;;;;;;;35.42;8.18;;;;;;;4.10;72.58;101193.78;5037122;28;20048;-79
2021/04/22 03:41:22;;;;;;;36.08;8.43;;;;;;;4.12;72.64;101201.66;5036878;28;20026;-79
2021/04/22 03:43:47;;;;;;;42.00;6.72;;;;;;;4.10;72.37;101200.88;5036117;28;20144;-79
2021/04/22 03:46:12;;;;;;;40.78;7.63;;;;;;;4.07;72.64;101204.59;5035469;28;20084;-79
2021/04/22 03:48:38;;;;;;;33.92;6.22;;;;;;;3.98;73.73;101199.78;5022327;28;20021;-79
2021/04/22 03:51:03;;;;;;;43.33;6.80;;;;;;;3.91;73.71;101201.88;5037138;28;20508;-79
2021/04/22 03:53:28;;;;;;;60.47;8.82;;;;;;;3.91;73.28;101204.53;5018851;28;20036;-79
2021/04/22 03:55:54;;;;;;;40.97;6.93;;;;;;;3.91;73.21;101203.69;5038175;28;20100;-80
2021/04/22 03:58:19;;;;;;;43.67;8.13;;;;;;;3.85;74.11;101202.19;5041937;28;20057;-79
2021/04/22 04:00:45;;;;;;;37.67;6.90;;;;;;;3.94;73.53;101198.19;5021259;28;20029;-79
2021/04/22 04:03:10;;;;;;;46.08;6.60;;;;;;;3.91;73.68;101209.00;5019817;28;20025;-79
2021/04/22 04:05:35;;;;;;;41.55;7.43;;;;;;;3.87;73.85;101212.78;5019231;28;20143;-79
2021/04/22 04:08:01;;;;;;;46.47;7.20;;;;;;;3.86;74.15;101222.56;5037599;28;20049;-79
2021/04/22 04:10:26;;;;;;;49.95;9.68;;;;;;;3.82;74.58;101213.00;5018240;28;20412;-79
2021/04/22 04:12:51;;;;;;;47.35;8.25;;;;;;;3.86;73.75;101227.88;5038742;28;20052;-79
2021/04/22 04:15:17;;;;;;;38.70;7.32;;;;;;;3.83;74.48;101232.50;5036765;28;20104;-78
2021/04/22 04:17:42;;;;;;;34.28;7.45;;;;;;;3.83;74.25;101221.88;5038278;28;20037;-78
2021/04/22 04:20:10;;;;;;;42.72;7.35;;;;;;;3.77;75.15;101232.84;5017183;28;20116;-78
2021/04/22 04:22:36;;;;;;;33.45;6.22;;;;;;;3.72;74.85;101230.41;5038137;28;20065;-79
2021/04/22 04:25:01;;;;;;;42.03;8.65;;;;;;;3.73;74.61;101239.22;5020742;28;20060;-79
2021/04/22 04:27:26;;;;;;;33.45;7.38;;;;;;;3.74;75.32;101225.88;5020871;28;20029;-78
2021/04/22 04:29:52;;;;;;;46.92;8.20;;;;;;;3.82;74.61;101241.41;5038566;28;20129;-79
2021/04/22 04:32:17;;;;;;;42.60;8.43;;;;;;;3.77;75.08;101248.78;5038180;28;20029;-80
2021/04/22 04:34:43;;;;;;;42.20;7.05;;;;;;;3.75;74.71;101240.88;5038429;28;20366;-78
2021/04/22 04:37:08;;;;;;;42.45;7.90;;;;;;;3.80;75.03;101245.97;5038990;28;20037;-78
2021/04/22 04:39:34;;;;;;;48.42;10.13;;;;;;;3.78;75.09;101240.72;5035819;28;20029;-78
2021/04/22 04:41:59;;;;;;;40.58;7.68;;;;;;;3.87;74.92;101242.03;5017907;28;20029;-78
2021/04/22 04:44:25;;;;;;;50.20;8.20;;;;;;;3.90;74.59;101242.72;5036125;28;20085;-80
2021/04/22 04:46:50;;;;;;;45.65;8.40;;;;;;;3.94;74.38;101248.75;5043935;28;20034;-79
2021/04/22 04:49:16;;;;;;;40.30;9.32;;;;;;;3.93;74.99;101247.03;5038317;28;20111;-79
2021/04/22 04:51:41;;;;;;;34.65;7.68;;;;;;;3.95;74.23;101244.28;5038888;28;20025;-79
2021/04/22 04:54:06;;;;;;;39.67;7.78;;;;;;;3.98;74.47;101255.66;5036404;28;20041;-78
2021/04/22 04:56:32;;;;;;;42.72;7.85;;;;;;;4.02;73.80;101251.03;5037072;28;20180;-79
2021/04/22 04:58:58;;;;;;;51.42;8.98;;;;;;;4.07;73.31;101262.25;5017291;28;20105;-78
2021/04/22 05:01:24;;;;;;;56.60;10.18;;;;;;;4.04;74.18;101258.00;5019587;28;20124;-78
2021/04/22 05:03:49;;;;;;;53.88;8.70;;;;;;;4.07;74.02;101255.16;5041139;28;20534;-78
2021/04/22 05:06:15;;;;;;;49.60;8.38;;;;;;;4.06;73.56;101258.75;5040337;28;20049;-78
2021/04/22 05:08:40;;;;;;;42.53;9.05;;;;;;;4.12;73.58;101254.91;5040132;28;20068;-79
2021/04/22 05:11:05;;;;;;;45.33;8.65;;;;;;;4.16;73.61;101267.09;5018805;28;20027;-78
2021/04/22 05:13:31;;;;;;;46.00;8.98;;;;;;;4.22;73.35;101266.78;5036429;28;20030;-79
2021/04/22 05:15:58;;;;;;;47.53;8.52;;;;;;;4.24;73.19;101267.56;5040371;28;20037;-79
2021/04/22 05:18:23;;;;;;;48.10;8.48;;;;;;;4.21;73.46;101278.38;5027498;28;20030;-78
2021/04/22 05:20:49;;;;;;;44.78;8.13;;;;;;;4.29;72.92;101286.81;5022546;28;20048;-78
2021/04/22 05:23:14;;;;;;;57.08;8.73;;;;;;;4.29;73.24;101285.97;5041993;28;20476;-79
2021/04/22 05:25:40;;;;;;;43.60;8.23;;;;;;;4.28;73.53;101302.84;5041177;28;20048;-78
2021/04/22 05:28:05;;;;;;;38.53;7.93;;;;;;;4.32;72.52;101288.47;5019046;28;20025;-78
2021/04/22 05:30:31;;;;;;;41.95;8.23;;;;;;;4.33;71.97;101296.34;5038652;28;20089;-80
2021/04/22 05:32:56;;;;;;;43.92;7.60;;;;;;;4.37;72.05;101289.06;5013572;28;20441;-78
2021/04/22 05:35:22;;;;;;;37.97;7.57;;;;;;;4.42;72.20;101305.66;5036916;28;20030;-79
2021/04/22 05:37:47;;;;;;;50.00;7.95;;;;;;;4.42;72.47;101307.47;5037797;28;20496;-80
2021/04/22 05:40:14;;;;;;;48.90;8.32;;;;;;;4.49;71.99;101303.50;5020585;28;20033;-80
2021/04/22 05:42:39;;;;;;;37.42;7.60;;;;;;;4.49;71.39;101296.38;5037170;28;20079;-81
2021/04/22 05:45:06;;;;;;;42.60;8.68;;;;;;;4.49;71.11;101316.84;5040448;28;20030;-80
2021/04/22 05:47:31;;;;;;;52.55;8.02;;;;;;;4.54;70.96;101297.00;5031205;28;20033;-81
2021/04/22 05:49:57;;;;;;;38.95;8.02;;;;;;;4.57;71.60;101302.16;5029092;28;20026;-81
2021/04/22 05:52:22;;;;;;;50.85;7.10;;;;;;;4.61;70.74;101311.69;5042366;28;20036;-81
2021/04/22 05:54:47;;;;;;;47.63;8.45;;;;;;;4.64;70.64;101315.16;5042158;28;20037;-81
2021/04/22 05:57:13;;;;;;;46.33;9.48;;;;;;;4.66;70.89;101322.13;5034273;28;20083;-81
2021/04/22 05:59:38;;;;;;;42.30;7.82;;;;;;;4.72;69.72;101319.13;5024104;28;20140;-79
2021/04/22 06:02:04;;;;;;;50.92;9.63;;;;;;;4.74;69.67;101313.69;5003993;28;20030;-80
2021/04/22 06:04:29;;;;;;;37.35;7.88;;;;;;;4.79;69.59;101320.50;5018602;28;20120;-79
2021/04/22 06:06:54;;;;;;;31.13;7.35;;;;;;;4.85;69.01;101329.97;5020621;28;20399;-80
2021/04/22 06:09:20;;;;;;;43.00;8.10;;;;;;;4.89;68.05;101322.66;5014763;28;20033;-79
2021/04/22 06:11:45;;;;;;;42.90;6.75;;;;;;;4.98;68.15;101327.47;5013008;28;20099;-79
2021/04/22 06:14:12;;;;;;;41.67;9.23;;;;;;;5.05;67.25;101324.38;5014756;28;20033;-79
2021/04/22 06:16:37;;;;;;;42.38;7.43;;;;;;;5.13;66.49;101325.75;5011135;28;20036;-79
2021/04/22 06:19:04;;;;;;;35.25;6.53;;;;;;;5.20;66.48;101327.13;5016254;28;20572;-79
2021/04/22 06:21:30;;;;;;;43.17;7.53;;;;;;;5.25;66.33;101327.72;5014301;28;20029;-79
2021/04/22 06:23:55;;;;;;;37.33;7.82;;;;;;;5.29;65.57;101324.81;5017807;28;20036;-79
2021/04/22 06:26:22;;;;;;;36.72;8.38;;;;;;;5.31;65.95;101327.38;5015143;28;20065;-79
2021/04/22 06:28:49;;;;;;;40.60;6.70;;;;;;;5.34;64.56;101329.00;4998956;28;20017;-79
2021/04/22 06:31:15;;;;;;;34.05;8.38;;;;;;;5.39;64.73;101340.28;5015340;28;20022;-79
2021/04/22 06:33:40;;;;;;;37.45;8.15;;;;;;;5.44;63.70;101330.19;5023050;28;20045;-79
2021/04/22 06:36:05;;;;;;;35.88;7.43;;;;;;;5.52;63.37;101351.97;5022356;28;20102;-79
2021/04/22 06:38:31;;;;;;;42.05;7.43;;;;;;;5.57;62.92;101349.91;5016430;28;20461;-79
2021/04/22 06:40:56;;;;;;;41.67;9.10;;;;;;;5.59;62.86;101341.78;5010939;28;20017;-79
2021/04/22 06:43:21;;;;;;;32.58;7.47;;;;;;;5.62;62.93;101342.47;5001752;28;20108;-80
2021/04/22 06:45:47;;;;;;;30.73;7.47;;;;;;;5.63;62.02;101346.88;5008516;28;20448;-80
2021/04/22 06:48:14;;;;;;;31.25;6.85;;;;;;;5.71;62.96;101347.28;5004159;28;20030;-79
2021/04/22 06:50:40;;;;;;;35.15;7.05;;;;;;;5.82;61.92;101359.16;5012679;28;20033;-80
2021/04/22 06:53:06;;;;;;;30.27;6.97;;;;;;;5.86;61.64;101356.19;5014439;28;20060;-80
2021/04/22 06:55:31;;;;;;;34.90;7.35;;;;;;;5.91;61.63;101364.78;5006147;28;20112;-79
2021/04/22 06:57:59;;;;;;;32.17;7.75;;;;;;;6.02;61.07;101368.66;5004949;28;20268;-80
2021/04/22 07:00:27;;;;;;;33.08;7.38;;;;;;;6.09;61.07;101370.91;5017166;28;20040;-80
2021/04/22 07:02:52;;;;;;;28.27;7.35;;;;;;;6.19;60.77;101380.06;5014368;28;20770;-80
2021/04/22 07:05:18;;;;;;;30.25;7.38;;;;;;;6.31;59.51;101370.47;5002753;28;20064;-79
2021/04/22 07:07:44;;;;;;;33.38;7.53;;;;;;;6.35;59.26;101374.66;5027175;28;20350;-79
2021/04/22 07:10:10;;;;;;;43.33;8.30;;;;;;;6.35;59.36;101376.47;5018236;28;20021;-79
2021/04/22 07:12:36;;;;;;;29.95;7.90;;;;;;;6.34;58.63;101378.28;5016548;28;20563;-79
2021/04/22 07:15:04;;;;;;;39.42;7.70;;;;;;;6.41;58.86;101374.28;5017999;28;20036;-82
2021/04/22 07:17:29;;;;;;;32.90;7.70;;;;;;;6.44;58.81;101375.91;5003253;28;20358;-77
2021/04/22 07:19:55;;;;;;;29.02;6.82;;;;;;;6.51;58.56;101379.06;5007779;28;20037;-80
2021/04/22 07:22:22;;;;;;;34.40;7.00;;;;;;;6.53;58.48;101382.50;5025003;28;20064;-79
2021/04/22 07:24:47;;;;;;;26.55;6.97;;;;;;;6.54;58.41;101378.88;5020821;28;20033;-80
2021/04/22 07:27:13;;;;;;;39.17;8.15;;;;;;;6.53;58.53;101386.03;5012507;28;20044;-80
2021/04/22 07:29:44;;;;;;;27.90;6.72;;;;;;;6.62;58.31;101392.63;5017940;28;20436;-79
2021/04/22 07:32:12;;;;;;;26.52;7.20;;;;;;;6.64;58.27;101391.59;5008690;28;20323;-79
2021/04/22 07:34:38;;;;;;;30.02;6.78;;;;;;;6.70;57.75;101394.81;5015376;28;20124;-80
2021/04/22 07:37:04;;;;;;;37.00;7.50;;;;;;;6.72;57.78;101388.44;5018294;28;20056;-80
2021/04/22 07:39:30;;;;;;;38.80;8.02;;;;;;;6.77;58.77;101394.34;5009116;28;20144;-79
2021/04/22 07:41:55;;;;;;;34.85;7.78;;;;;;;6.90;57.92;101384.59;5004478;28;20089;-79
2021/04/22 07:44:21;;;;;;;26.92;7.38;;;;;;;6.98;57.33;101394.84;5012754;28;20324;-80
2021/04/22 07:46:46;;;;;;;35.63;6.55;;;;;;;7.10;56.58;101398.53;5016574;28;20132;-80
2021/04/22 07:49:12;;;;;;;33.47;7.65;;;;;;;7.20;56.60;101388.13;5017511;28;20036;-80
2021/04/22 07:51:37;;;;;;;33.78;6.97;;;;;;;7.40;56.54;101389.50;5015807;28;20048;-80
2021/04/22 07:54:04;;;;;;;31.27;7.03;;;;;;;7.50;56.28;101390.63;5013691;28;20112;-79
2021/04/22 07:56:29;;;;;;;31.08;6.82;;;;;;;7.57;55.61;101386.59;5018862;28;20090;-79
2021/04/22 07:58:54;;;;;;;26.50;7.28;;;;;;;7.64;55.07;101405.78;5014951;28;20033;-81
2021/04/22 08:01:20;;;;;;;31.15;7.30;;;;;;;7.63;55.31;101390.69;5016086;28;20018;-80
2021/04/22 08:03:45;;;;;;;28.48;7.25;;;;;;;7.50;55.61;101393.28;5013780;28;20044;-80
2021/04/22 08:06:10;;;;;;;28.35;6.70;;;;;;;7.36;55.06;101404.91;5004338;28;20476;-81
2021/04/22 08:08:36;;;;;;;24.98;6.63;;;;;;;7.37;54.52;101402.09;5016042;28;20033;-81
2021/04/22 08:11:01;;;;;;;20.85;5.15;;;;;;;7.47;52.78;101410.44;5000453;28;20044;-81
2021/04/22 08:13:27;;;;;;;18.40;5.45;;;;;;;7.67;52.34;101414.47;5014949;28;20025;-80
2021/04/22 08:15:54;;;;;;;25.95;6.75;;;;;;;7.97;52.19;101408.06;5012650;28;20144;-81
2021/04/22 08:18:22;;;;;;;28.67;5.82;;;;;;;8.23;51.97;101409.84;5006980;28;20034;-80
2021/04/22 08:20:47;;;;;;;30.80;7.57;;;;;;;8.42;51.68;101396.06;4979355;28;20028;-81
2021/04/22 08:23:14;;;;;;;29.63;6.60;;;;;;;8.22;50.84;101421.50;4998501;28;20041;-81
2021/04/22 08:25:43;;;;;;;20.70;5.55;;;;;;;8.20;49.30;101422.56;4995917;28;20121;-81
2021/04/22 08:28:10;;;;;;;20.60;5.43;;;;;;;8.26;48.20;101409.63;5011340;28;20030;-81
2021/04/22 08:30:45;;;;;;;20.98;5.75;;;;;;;8.34;48.33;101427.00;5013087;28;20030;-80
2021/04/22 08:33:13;;;;;;;19.48;5.25;;;;;;;8.50;47.24;101423.19;5009332;28;20045;-80
2021/04/22 08:35:38;;;;;;;17.92;5.25;;;;;;;8.49;47.30;101421.47;5000271;28;20094;-80
2021/04/22 08:38:04;;;;;;;20.95;5.45;;;;;;;8.62;47.43;101412.59;5003287;28;20021;-80
2021/04/22 08:40:30;;;;;;;19.55;5.47;;;;;;;8.78;46.81;101421.25;5006796;28;20033;-80
2021/04/22 08:42:56;;;;;;;27.48;7.38;;;;;;;8.74;45.15;101420.63;5014726;28;20041;-80
2021/04/22 08:45:21;;;;;;;22.60;5.53;;;;;;;8.43;45.23;101418.38;5014179;28;20032;-80
2021/04/22 08:47:47;;;;;;;29.05;5.50;;;;;;;8.32;46.77;101410.16;5014352;28;20044;-80
2021/04/22 08:50:25;;;;;;;14.23;4.38;;;;;;;8.47;46.80;101417.19;5008229;28;20690;-80
2021/04/22 08:52:53;;;;;;;17.30;4.60;;;;;;;8.46;45.19;101424.38;5002025;28;20120;-80
2021/04/22 08:55:21;;;;;;;14.30;4.60;;;;;;;8.48;44.24;101427.81;5017414;28;20436;-80
2021/04/22 08:57:47;;;;;;;19.50;6.20;;;;;;;8.57;44.52;101418.28;5021920;28;20035;-80
2021/04/22 09:00:17;;;;;;;14.23;4.65;;;;;;;8.89;43.57;101416.00;5024678;28;20084;-80
2021/04/22 09:02:42;;;;;;;18.67;5.45;;;;;;;9.40;44.41;101444.63;5020679;28;20029;-80
2021/04/22 09:05:10;;;;;;;19.17;5.32;;;;;;;9.38;47.87;101419.69;5019889;28;20531;-81
2021/04/22 09:07:35;;;;;;;30.17;5.80;;;;;;;9.11;48.77;101412.66;5019416;28;20033;-79
2021/04/22 09:10:02;;;;;;;20.65;6.35;;;;;;;8.89;49.98;101429.44;5018160;28;20072;-80
2021/04/22 09:12:27;;;;;;;30.55;8.40;;;;;;;8.70;50.22;101413.78;5002805;28;20033;-80
2021/04/22 09:14:58;;;;;;;24.35;5.28;;;;;;;8.48;52.20;101448.41;5015339;28;20064;-80
2021/04/22 09:17:25;;;;;;;29.17;6.65;;;;;;;8.82;51.84;101436.19;5017829;28;20112;-80
2021/04/22 09:19:52;;;;;;;33.10;5.97;;;;;;;9.47;50.31;101435.13;5016748;28;20045;-80
2021/04/22 09:22:17;;;;;;;31.73;5.53;;;;;;;9.60;49.33;101430.56;5003598;28;20052;-80
2021/04/22 09:24:43;;;;;;;32.65;7.00;;;;;;;9.55;49.25;101448.00;5018864;28;20037;-80
2021/04/22 09:27:16;;;;;;;30.13;6.13;;;;;;;9.41;49.35;101452.53;4998961;28;20026;-80
2021/04/22 09:29:50;;;;;;;20.80;5.05;;;;;;;9.61;48.42;101451.09;5018748;28;20044;-80
2021/04/22 09:32:20;;;;;;;22.77;5.32;;;;;;;9.76;47.99;101461.69;5012401;28;20063;-80
2021/04/22 09:34:50;;;;;;;21.63;5.75;;;;;;;9.51;48.49;101446.50;5011711;28;20036;-80
2021/04/22 09:37:20;;;;;;;27.73;6.07;;;;;;;9.36;48.47;101441.25;5016092;28;20021;-80
2021/04/22 09:39:46;;;;;;;16.42;5.35;;;;;;;9.37;49.48;101479.72;5023876;28;20358;-79
2021/04/22 09:42:14;;;;;;;21.23;5.82;;;;;;;9.34;49.22;101459.34;5023356;28;20056;-80
2021/04/22 09:44:41;;;;;;;17.25;5.65;;;;;;;9.26;50.23;101455.47;5019242;28;20029;-80
2021/04/22 09:47:11;;;;;;;30.35;6.70;;;;;;;9.03;51.96;101470.50;5021622;28;20945;-80
2021/04/22 09:50:06;;;;;;;20.95;5.68;;;;;;;9.07;50.90;101461.31;5019900;28;20029;-79
2021/04/22 09:52:35;;;;;;;25.05;6.55;;;;;;;9.71;49.45;101447.75;5015540;28;20527;-80
2021/04/22 09:55:01;;;;;;;23.35;6.57;;;;;;;9.98;48.37;101450.19;5015601;28;20029;-80
2021/04/22 09:57:34;;;;;;;21.00;6.80;;;;;;;9.77;49.50;101439.25;5015392;28;20560;-80
2021/04/22 10:00:02;;;;;;;29.98;6.80;;;;;;;9.79;49.52;101461.44;5013063;28;20473;-75
2021/04/22 10:02:28;;;;;;;25.38;5.95;;;;;;;9.88;49.53;101439.28;4993341;28;20219;-75
2021/04/22 10:04:55;;;;;;;25.13;6.20;;;;;;;10.34;48.76;101468.97;5009911;28;20038;-73
2021/04/22 10:07:30;;;;;;;25.92;5.97;;;;;;;10.49;47.20;101475.00;5007462;28;20021;-80
2021/04/22 10:10:02;;;;;;;23.92;5.60;;;;;;;10.41;47.09;101472.06;4994945;28;20464;-80
2021/04/22 10:12:33;;;;;;;18.42;5.40;;;;;;;10.21;47.38;101464.59;5011160;28;20049;-80
2021/04/22 10:15:21;;;;;;;23.58;6.10;;;;;;;9.79;49.09;101480.25;5001720;28;20029;-80
2021/04/22 10:17:55;;;;;;;25.40;6.25;;;;;;;9.48;49.67;101487.84;5011302;28;20021;-80
2021/04/22 10:20:22;;;;;;;21.58;5.18;;;;;;;9.69;49.96;101482.75;5013219;28;20025;-80
2021/04/22 10:22:49;;;;;;;19.70;5.95;;;;;;;9.44;49.30;101479.16;5012497;28;20033;-81
2021/04/22 10:25:18;;;;;;;28.20;6.97;;;;;;;9.26;51.25;101467.06;5014028;28;20063;-80
2021/04/22 10:27:44;;;;;;;24.30;6.28;;;;;;;9.60;50.96;101488.81;4998228;28;20088;-81
2021/04/22 10:30:23;;;;;;;25.63;5.65;;;;;;;9.62;50.45;101474.28;4999643;28;20048;-81
2021/04/22 10:32:49;;;;;;;19.80;6.47;;;;;;;9.65;50.05;101467.84;5007751;28;20025;-80
2021/04/22 10:35:19;;;;;;;22.42;6.32;;;;;;;9.49;51.76;101472.59;5004341;28;20044;-80
2021/04/22 10:37:46;;;;;;;27.73;6.68;;;;;;;9.50;51.33;101472.50;5013282;28;20044;-81
2021/04/22 10:40:14;;;;;;;22.35;6.05;;;;;;;9.59;50.13;101460.25;5014105;28;20029;-80
2021/04/22 10:42:40;;;;;;;32.78;7.32;;;;;;;10.04;49.52;101487.34;5003950;28;20358;-81
2021/04/22 10:45:12;;;;;;;30.98;7.63;;;;;;;10.35;48.45;101478.75;5003530;28;20033;-80
2021/04/22 10:47:38;;;;;;;21.02;6.38;;;;;;;10.56;47.41;101473.56;5019520;28;20040;-81
2021/04/22 10:50:09;;;;;;;26.35;6.28;;;;;;;10.16;47.62;101483.75;5011865;28;20030;-80
2021/04/22 10:52:34;;;;;;;21.88;6.35;;;;;;;9.93;48.87;101472.03;5001230;28;20600;-81
2021/04/22 10:55:00;;;;;;;26.52;7.18;;;;;;;9.98;47.30;101485.13;5013847;28;20152;-78
2021/04/22 10:57:30;;;;;;;31.13;7.05;;;;;;;10.22;47.89;101480.59;5009085;28;20534;-80
2021/04/22 11:00:10;;;;;;;21.02;5.68;;;;;;;10.24;48.55;101486.72;5010212;28;20126;-80
2021/04/22 11:02:50;;;;;;;27.23;6.85;;;;;;;10.06;49.49;101469.28;5006669;28;20025;-79
2021/04/22 11:05:34;;;;;;;23.15;6.45;;;;;;;9.61;51.36;101475.28;5012679;28;20022;-80
2021/04/22 11:08:09;;;;;;;25.98;6.90;;;;;;;8.97;53.36;101488.78;5018281;28;20029;-80
2021/04/22 11:10:38;;;;;;;24.65;6.40;;;;;;;8.99;55.20;101475.25;5016261;28;20029;-80
2021/04/22 11:13:25;;;;;;;24.33;6.63;;;;;;;9.54;54.11;101482.03;5015395;28;20029;-80
2021/04/22 11:15:54;;;;;;;25.92;7.40;;;;;;;9.77;52.91;101483.06;5024905;28;20037;-80
2021/04/22 11:18:19;;;;;;;32.53;7.55;;;;;;;9.65;53.27;101484.81;5017817;28;20030;-80
2021/04/22 11:20:46;;;;;;;30.27;8.02;;;;;;;9.44;53.80;101486.38;4999205;28;20120;-80
2021/04/22 11:23:16;;;;;;;32.67;8.38;;;;;;;9.66;52.90;101473.09;5019052;28;20465;-80